DLH3UY EDDF-EDDS
Flight info
| Callsign | DLH3UY |
|---|---|
| Flight time | 0h 23m |
| Altitude | 13000 |
| Route | ANEKI2L/18 ANEKI Y163 NEKLO Y171 INKAM N850 KRH T128 BADSO BADSO2A |
| Aircraft | A321/M-SDE3FGHIRWY/LB1 |
Departure
| Time | 2026-05-05 19:04 |
|---|---|
| Airport | Frankfurt Main Airport (EDDF) |
Arrival
| Time | 2026-05-05 19:28 |
|---|---|
| Airport | Stuttgart Airport (EDDS) |
| Time | Latitude | Longitude | Altitude | Speed | Heading |
|---|---|---|---|---|---|
| 2026-05-05 18:30 | 50.04561 | 8.56306 | 362 ft | 0 kts | 40° |
| 2026-05-05 18:51 | 50.04554 | 8.56297 | 364 ft | 4 kts | 30° |
| 2026-05-05 18:52 | 50.04531 | 8.56292 | 360 ft | 4 kts | 342° |
| 2026-05-05 18:52 | 50.04510 | 8.56305 | 361 ft | 4 kts | 311° |
| 2026-05-05 18:52 | 50.04505 | 8.56337 | 363 ft | 4 kts | 251° |
| 2026-05-05 18:52 | 50.04514 | 8.56374 | 364 ft | 4 kts | 249° |
| 2026-05-05 18:53 | 50.04516 | 8.56385 | 359 ft | 0 kts | 249° |
| 2026-05-05 18:56 | 50.04516 | 8.56383 | 356 ft | 1 kts | 249° |
| 2026-05-05 18:57 | 50.04512 | 8.56366 | 362 ft | 3 kts | 249° |
| 2026-05-05 18:57 | 50.04501 | 8.56322 | 360 ft | 6 kts | 249° |
| 2026-05-05 18:57 | 50.04486 | 8.56257 | 356 ft | 7 kts | 250° |
| 2026-05-05 18:57 | 50.04465 | 8.56169 | 362 ft | 10 kts | 250° |
| 2026-05-05 18:58 | 50.04440 | 8.56066 | 362 ft | 11 kts | 247° |
| 2026-05-05 18:58 | 50.04377 | 8.56037 | 363 ft | 11 kts | 161° |
| 2026-05-05 18:58 | 50.04299 | 8.56071 | 358 ft | 12 kts | 184° |
| 2026-05-05 18:58 | 50.04246 | 8.55965 | 358 ft | 14 kts | 249° |
| 2026-05-05 18:59 | 50.04210 | 8.55815 | 356 ft | 16 kts | 250° |
| 2026-05-05 18:59 | 50.04170 | 8.55649 | 353 ft | 17 kts | 250° |
| 2026-05-05 18:59 | 50.04126 | 8.55469 | 353 ft | 18 kts | 248° |
| 2026-05-05 18:59 | 50.04081 | 8.55282 | 361 ft | 18 kts | 250° |
| 2026-05-05 19:00 | 50.04038 | 8.55094 | 360 ft | 19 kts | 250° |
| 2026-05-05 19:00 | 50.03990 | 8.54898 | 356 ft | 20 kts | 250° |
| 2026-05-05 19:00 | 50.03940 | 8.54686 | 355 ft | 22 kts | 249° |
| 2026-05-05 19:00 | 50.03886 | 8.54461 | 351 ft | 24 kts | 250° |
| 2026-05-05 19:01 | 50.03834 | 8.54311 | 354 ft | 13 kts | 235° |
| 2026-05-05 19:01 | 50.03789 | 8.54177 | 351 ft | 15 kts | 250° |
| 2026-05-05 19:01 | 50.03751 | 8.54019 | 349 ft | 16 kts | 250° |
| 2026-05-05 19:01 | 50.03710 | 8.53845 | 349 ft | 18 kts | 249° |
| 2026-05-05 19:02 | 50.03664 | 8.53657 | 348 ft | 19 kts | 249° |
| 2026-05-05 19:02 | 50.03613 | 8.53454 | 338 ft | 21 kts | 249° |
| 2026-05-05 19:02 | 50.03561 | 8.53236 | 337 ft | 22 kts | 250° |
| 2026-05-05 19:02 | 50.03505 | 8.53005 | 333 ft | 23 kts | 249° |
| 2026-05-05 19:03 | 50.03443 | 8.52764 | 334 ft | 25 kts | 248° |
| 2026-05-05 19:03 | 50.03367 | 8.52602 | 333 ft | 16 kts | 200° |
| 2026-05-05 19:03 | 50.03245 | 8.52594 | 335 ft | 24 kts | 179° |
| 2026-05-05 19:03 | 50.02927 | 8.52598 | 334 ft | 78 kts | 179° |
| 2026-05-05 19:04 | 50.02158 | 8.52605 | 335 ft | 141 kts | 179° |
| 2026-05-05 19:04 | 50.01019 | 8.52611 | 467 ft | 176 kts | 180° |
| 2026-05-05 19:04 | 49.99834 | 8.52629 | 1260 ft | 168 kts | 180° |
| 2026-05-05 19:04 | 49.98649 | 8.52705 | 1898 ft | 176 kts | 180° |
| 2026-05-05 19:05 | 49.97353 | 8.52800 | 2188 ft | 196 kts | 180° |
| 2026-05-05 19:05 | 49.95916 | 8.52905 | 2398 ft | 217 kts | 179° |
| 2026-05-05 19:05 | 49.94370 | 8.53021 | 2805 ft | 227 kts | 179° |
| 2026-05-05 19:05 | 49.92789 | 8.53140 | 3440 ft | 228 kts | 180° |
| 2026-05-05 19:06 | 49.91201 | 8.53252 | 4103 ft | 229 kts | 180° |
| 2026-05-05 19:06 | 49.89607 | 8.53363 | 4732 ft | 230 kts | 180° |
| 2026-05-05 19:06 | 49.88023 | 8.53476 | 5327 ft | 231 kts | 180° |
| 2026-05-05 19:06 | 49.86412 | 8.53592 | 5934 ft | 233 kts | 180° |
| 2026-05-05 19:07 | 49.84785 | 8.53704 | 6503 ft | 235 kts | 180° |
| 2026-05-05 19:07 | 49.83141 | 8.53817 | 7057 ft | 237 kts | 180° |
| 2026-05-05 19:07 | 49.81487 | 8.53930 | 7606 ft | 240 kts | 180° |
| 2026-05-05 19:07 | 49.79810 | 8.54043 | 8261 ft | 242 kts | 180° |
| 2026-05-05 19:08 | 49.78122 | 8.54135 | 8943 ft | 243 kts | 185° |
| 2026-05-05 19:08 | 49.76373 | 8.53931 | 9265 ft | 262 kts | 187° |
| 2026-05-05 19:08 | 49.74495 | 8.53675 | 9632 ft | 277 kts | 187° |
| 2026-05-05 19:08 | 49.72548 | 8.53408 | 10076 ft | 288 kts | 187° |
| 2026-05-05 19:09 | 49.70475 | 8.53124 | 10209 ft | 310 kts | 187° |
| 2026-05-05 19:09 | 49.68256 | 8.52824 | 10332 ft | 330 kts | 187° |
| 2026-05-05 19:09 | 49.65904 | 8.52509 | 10462 ft | 348 kts | 186° |
| 2026-05-05 19:09 | 49.63458 | 8.52191 | 10868 ft | 356 kts | 186° |
| 2026-05-05 19:10 | 49.60979 | 8.51871 | 11418 ft | 359 kts | 186° |
| 2026-05-05 19:10 | 49.58483 | 8.51545 | 11971 ft | 362 kts | 186° |
| 2026-05-05 19:10 | 49.55956 | 8.51215 | 12521 ft | 365 kts | 186° |
| 2026-05-05 19:10 | 49.53411 | 8.50880 | 13062 ft | 369 kts | 186° |
| 2026-05-05 19:11 | 49.50842 | 8.50542 | 13602 ft | 372 kts | 186° |
| 2026-05-05 19:11 | 49.48245 | 8.50293 | 14080 ft | 376 kts | 179° |
| 2026-05-05 19:11 | 49.45656 | 8.51036 | 14552 ft | 383 kts | 161° |
| 2026-05-05 19:11 | 49.43328 | 8.53048 | 15034 ft | 390 kts | 142° |
| 2026-05-05 19:12 | 49.41395 | 8.55937 | 15490 ft | 394 kts | 136° |
| 2026-05-05 19:12 | 49.39483 | 8.58964 | 15979 ft | 396 kts | 136° |
| 2026-05-05 19:12 | 49.37560 | 8.62023 | 16458 ft | 399 kts | 136° |
| 2026-05-05 19:12 | 49.35630 | 8.65093 | 16876 ft | 402 kts | 136° |
| 2026-05-05 19:13 | 49.33689 | 8.68173 | 16832 ft | 401 kts | 136° |
| 2026-05-05 19:13 | 49.31707 | 8.71302 | 16839 ft | 416 kts | 136° |
| 2026-05-05 19:13 | 49.29665 | 8.74515 | 16836 ft | 425 kts | 136° |
| 2026-05-05 19:13 | 49.27588 | 8.77770 | 16839 ft | 427 kts | 136° |
| 2026-05-05 19:14 | 49.25508 | 8.81025 | 16836 ft | 428 kts | 136° |
| 2026-05-05 19:14 | 49.23423 | 8.84284 | 16834 ft | 428 kts | 136° |
| 2026-05-05 19:14 | 49.21337 | 8.87538 | 16838 ft | 428 kts | 136° |
| 2026-05-05 19:14 | 49.19261 | 8.90777 | 16838 ft | 427 kts | 136° |
| 2026-05-05 19:15 | 49.17180 | 8.94018 | 16838 ft | 427 kts | 137° |
| 2026-05-05 19:15 | 49.15092 | 8.97262 | 16841 ft | 428 kts | 137° |
| 2026-05-05 19:15 | 49.13006 | 9.00501 | 16840 ft | 428 kts | 137° |
| 2026-05-05 19:15 | 49.10927 | 9.03727 | 16712 ft | 419 kts | 137° |
| 2026-05-05 19:16 | 49.08933 | 9.06821 | 16476 ft | 411 kts | 137° |
| 2026-05-05 19:16 | 49.06932 | 9.09921 | 16211 ft | 409 kts | 137° |
| 2026-05-05 19:16 | 49.04937 | 9.13007 | 15948 ft | 407 kts | 137° |
| 2026-05-05 19:16 | 49.03593 | 9.15084 | 15785 ft | 406 kts | 137° |
| 2026-05-05 19:17 | 49.01636 | 9.18108 | 15526 ft | 405 kts | 137° |
| 2026-05-05 19:17 | 48.99637 | 9.21197 | 15272 ft | 404 kts | 137° |
| 2026-05-05 19:17 | 48.97709 | 9.24311 | 15028 ft | 404 kts | 134° |
| 2026-05-05 19:17 | 48.95879 | 9.27475 | 14777 ft | 403 kts | 134° |
| 2026-05-05 19:18 | 48.94037 | 9.30678 | 14534 ft | 402 kts | 134° |
| 2026-05-05 19:18 | 48.92178 | 9.33918 | 14286 ft | 401 kts | 134° |
| 2026-05-05 19:18 | 48.90359 | 9.37121 | 14046 ft | 401 kts | 132° |
| 2026-05-05 19:18 | 48.88918 | 9.40738 | 13697 ft | 400 kts | 114° |
| 2026-05-05 19:19 | 48.88320 | 9.44785 | 13127 ft | 385 kts | 94° |
| 2026-05-05 19:19 | 48.88490 | 9.48739 | 12474 ft | 365 kts | 85° |
| 2026-05-05 19:19 | 48.88805 | 9.52428 | 11842 ft | 349 kts | 84° |
| 2026-05-05 19:19 | 48.88954 | 9.54097 | 11563 ft | 341 kts | 84° |
| 2026-05-05 19:20 | 48.89270 | 9.57602 | 10938 ft | 329 kts | 85° |
| 2026-05-05 19:20 | 48.89208 | 9.60965 | 10324 ft | 312 kts | 109° |
| 2026-05-05 19:20 | 48.88310 | 9.63830 | 9712 ft | 292 kts | 135° |
| 2026-05-05 19:20 | 48.86796 | 9.65677 | 9065 ft | 272 kts | 162° |
| 2026-05-05 19:21 | 48.85036 | 9.66492 | 8411 ft | 260 kts | 174° |
| 2026-05-05 19:21 | 48.83301 | 9.66487 | 7772 ft | 243 kts | 202° |
| 2026-05-05 19:21 | 48.81879 | 9.65283 | 7172 ft | 230 kts | 221° |
| 2026-05-05 19:21 | 48.80676 | 9.63736 | 6655 ft | 223 kts | 224° |
| 2026-05-05 19:22 | 48.79516 | 9.62187 | 6162 ft | 224 kts | 224° |
| 2026-05-05 19:22 | 48.78342 | 9.60606 | 5663 ft | 227 kts | 224° |
| 2026-05-05 19:22 | 48.77151 | 9.59021 | 5154 ft | 228 kts | 224° |
| 2026-05-05 19:22 | 48.75994 | 9.57436 | 5003 ft | 219 kts | 229° |
| 2026-05-05 19:23 | 48.75235 | 9.55508 | 5007 ft | 208 kts | 252° |
| 2026-05-05 19:23 | 48.74850 | 9.53471 | 4984 ft | 197 kts | 254° |
| 2026-05-05 19:23 | 48.74485 | 9.51488 | 4820 ft | 194 kts | 254° |
| 2026-05-05 19:23 | 48.74122 | 9.49534 | 4586 ft | 190 kts | 253° |
| 2026-05-05 19:24 | 48.73768 | 9.47633 | 4339 ft | 186 kts | 253° |
| 2026-05-05 19:24 | 48.73420 | 9.45773 | 4081 ft | 181 kts | 253° |
| 2026-05-05 19:24 | 48.73089 | 9.44000 | 3866 ft | 174 kts | 253° |
| 2026-05-05 19:24 | 48.72764 | 9.42264 | 3615 ft | 169 kts | 253° |
| 2026-05-05 19:25 | 48.72448 | 9.40575 | 3405 ft | 165 kts | 253° |
| 2026-05-05 19:25 | 48.72138 | 9.38924 | 3191 ft | 161 kts | 253° |
| 2026-05-05 19:25 | 48.71836 | 9.37313 | 2961 ft | 157 kts | 253° |
| 2026-05-05 19:25 | 48.71539 | 9.35734 | 2762 ft | 155 kts | 253° |
| 2026-05-05 19:26 | 48.71247 | 9.34180 | 2551 ft | 150 kts | 254° |
| 2026-05-05 19:26 | 48.70967 | 9.32694 | 2361 ft | 145 kts | 253° |
| 2026-05-05 19:26 | 48.70694 | 9.31245 | 2158 ft | 144 kts | 253° |
| 2026-05-05 19:26 | 48.70411 | 9.29773 | 1950 ft | 146 kts | 253° |
| 2026-05-05 19:27 | 48.70134 | 9.28286 | 1773 ft | 148 kts | 253° |
| 2026-05-05 19:27 | 48.69856 | 9.26788 | 1570 ft | 148 kts | 253° |
| 2026-05-05 19:27 | 48.69577 | 9.25302 | 1376 ft | 146 kts | 251° |
| 2026-05-05 19:27 | 48.69297 | 9.23835 | 1204 ft | 138 kts | 253° |
| 2026-05-05 19:28 | 48.69075 | 9.22659 | 1224 ft | 92 kts | 254° |
| 2026-05-05 19:28 | 48.68954 | 9.22008 | 1243 ft | 43 kts | 256° |
| 2026-05-05 19:28 | 48.68948 | 9.21722 | 1259 ft | 22 kts | 277° |
| 2026-05-05 19:28 | 48.68981 | 9.21509 | 1259 ft | 19 kts | 284° |
| 2026-05-05 19:29 | 48.69000 | 9.21331 | 1260 ft | 15 kts | 263° |
| 2026-05-05 19:29 | 48.68972 | 9.21186 | 1267 ft | 14 kts | 253° |
| 2026-05-05 19:29 | 48.68947 | 9.21055 | 1271 ft | 12 kts | 254° |
| 2026-05-05 19:29 | 48.68926 | 9.20940 | 1270 ft | 11 kts | 254° |
| 2026-05-05 19:30 | 48.68906 | 9.20836 | 1272 ft | 10 kts | 254° |
| 2026-05-05 19:30 | 48.68893 | 9.20770 | 1273 ft | 9 kts | 253° |
| 2026-05-05 19:30 | 48.68886 | 9.20729 | 1274 ft | 8 kts | 253° |
| 2026-05-05 19:30 | 48.68874 | 9.20669 | 1278 ft | 7 kts | 253° |
| 2026-05-05 19:31 | 48.68867 | 9.20632 | 1277 ft | 7 kts | 254° |
| 2026-05-05 19:31 | 48.68853 | 9.20561 | 1278 ft | 9 kts | 254° |
| 2026-05-05 19:31 | 48.68842 | 9.20502 | 1281 ft | 13 kts | 254° |
| 2026-05-05 19:31 | 48.68819 | 9.20381 | 1282 ft | 12 kts | 254° |
| 2026-05-05 19:32 | 48.68798 | 9.20268 | 1287 ft | 11 kts | 254° |
| 2026-05-05 19:32 | 48.68779 | 9.20170 | 1287 ft | 10 kts | 254° |
| 2026-05-05 19:32 | 48.68762 | 9.20079 | 1289 ft | 7 kts | 254° |
| 2026-05-05 19:32 | 48.68757 | 9.20054 | 1290 ft | 0 kts | 255° |
| 2026-05-05 19:36 | 48.68757 | 9.20053 | 1290 ft | 1 kts | 255° |
| 2026-05-05 19:36 | 48.68755 | 9.20030 | 1291 ft | 3 kts | 268° |
| 2026-05-05 19:36 | 48.68776 | 9.19979 | 1293 ft | 11 kts | 311° |
| 2026-05-05 19:37 | 48.68831 | 9.19905 | 1298 ft | 9 kts | 330° |
| 2026-05-05 19:37 | 48.68875 | 9.19877 | 1301 ft | 5 kts | 331° |
| 2026-05-05 19:37 | 48.68890 | 9.19838 | 1304 ft | 7 kts | 280° |
| 2026-05-05 19:37 | 48.68879 | 9.19766 | 1306 ft | 8 kts | 254° |
| 2026-05-05 19:38 | 48.68854 | 9.19630 | 1309 ft | 16 kts | 254° |
| 2026-05-05 19:38 | 48.68824 | 9.19469 | 1312 ft | 16 kts | 254° |
| 2026-05-05 19:38 | 48.68798 | 9.19333 | 1314 ft | 5 kts | 262° |
| 2026-05-05 19:38 | 48.68801 | 9.19326 | 1314 ft | 1 kts | 292° |
| 2026-05-05 19:39 | 48.68822 | 9.19312 | 1315 ft | 2 kts | 350° |
| 2026-05-05 19:39 | 48.68835 | 9.19304 | 1315 ft | 2 kts | 341° |
| 2026-05-05 19:39 | 48.68854 | 9.19295 | 1315 ft | 5 kts | 343° |